sensor_id;sensor_type;location;lat;lon;timestamp;P1;durP1;ratioP1;P2;durP2;ratioP2
61915;SDS011;47868;51.326;6.550;2023-07-30T00:01:35;8.20;;;2.80;;
61915;SDS011;47868;51.326;6.550;2023-07-30T00:04:01;11.30;;;3.13;;
61915;SDS011;47868;51.326;6.550;2023-07-30T00:06:27;6.32;;;3.03;;
61915;SDS011;47868;51.326;6.550;2023-07-30T00:08:53;6.47;;;2.97;;
61915;SDS011;47868;51.326;6.550;2023-07-30T00:11:20;7.35;;;2.90;;
61915;SDS011;47868;51.326;6.550;2023-07-30T00:13:46;6.40;;;3.20;;
61915;SDS011;47868;51.326;6.550;2023-07-30T00:16:12;6.22;;;3.30;;
61915;SDS011;47868;51.326;6.550;2023-07-30T00:18:38;7.45;;;2.97;;
61915;SDS011;47868;51.326;6.550;2023-07-30T00:21:04;4.80;;;3.28;;
61915;SDS011;47868;51.326;6.550;2023-07-30T00:23:30;8.55;;;3.13;;
61915;SDS011;47868;51.326;6.550;2023-07-30T00:25:56;6.90;;;3.38;;
61915;SDS011;47868;51.326;6.550;2023-07-30T00:28:22;6.78;;;3.17;;
61915;SDS011;47868;51.326;6.550;2023-07-30T00:30:48;5.15;;;2.95;;
61915;SDS011;47868;51.326;6.550;2023-07-30T00:33:14;9.43;;;3.17;;
61915;SDS011;47868;51.326;6.550;2023-07-30T00:35:40;6.35;;;2.78;;
61915;SDS011;47868;51.326;6.550;2023-07-30T00:38:06;5.45;;;2.88;;
61915;SDS011;47868;51.326;6.550;2023-07-30T00:40:32;3.70;;;2.72;;
61915;SDS011;47868;51.326;6.550;2023-07-30T00:42:58;3.15;;;2.67;;
61915;SDS011;47868;51.326;6.550;2023-07-30T00:45:24;7.57;;;2.75;;
61915;SDS011;47868;51.326;6.550;2023-07-30T00:47:50;7.03;;;3.08;;
61915;SDS011;47868;51.326;6.550;2023-07-30T00:50:16;6.55;;;3.08;;
61915;SDS011;47868;51.326;6.550;2023-07-30T00:52:43;4.68;;;2.67;;
61915;SDS011;47868;51.326;6.550;2023-07-30T00:55:09;4.75;;;3.13;;
61915;SDS011;47868;51.326;6.550;2023-07-30T00:57:36;7.15;;;3.38;;
61915;SDS011;47868;51.326;6.550;2023-07-30T01:00:03;5.30;;;3.13;;
61915;SDS011;47868;51.326;6.550;2023-07-30T01:02:32;6.53;;;3.17;;
61915;SDS011;47868;51.326;6.550;2023-07-30T01:04:58;7.93;;;3.20;;
61915;SDS011;47868;51.326;6.550;2023-07-30T01:07:26;12.73;;;3.58;;
61915;SDS011;47868;51.326;6.550;2023-07-30T01:09:52;8.75;;;2.75;;
61915;SDS011;47868;51.326;6.550;2023-07-30T01:12:18;4.85;;;2.80;;
61915;SDS011;47868;51.326;6.550;2023-07-30T01:14:45;5.28;;;3.38;;
61915;SDS011;47868;51.326;6.550;2023-07-30T01:17:11;6.20;;;3.22;;
61915;SDS011;47868;51.326;6.550;2023-07-30T01:19:38;8.32;;;3.45;;
61915;SDS011;47868;51.326;6.550;2023-07-30T01:22:04;6.32;;;2.72;;
61915;SDS011;47868;51.326;6.550;2023-07-30T01:24:30;6.35;;;2.83;;
61915;SDS011;47868;51.326;6.550;2023-07-30T01:26:59;9.18;;;3.60;;
61915;SDS011;47868;51.326;6.550;2023-07-30T01:29:27;8.00;;;3.40;;
61915;SDS011;47868;51.326;6.550;2023-07-30T01:31:57;7.22;;;3.25;;
61915;SDS011;47868;51.326;6.550;2023-07-30T01:34:26;8.43;;;3.38;;
61915;SDS011;47868;51.326;6.550;2023-07-30T01:36:53;6.75;;;3.10;;
61915;SDS011;47868;51.326;6.550;2023-07-30T01:39:20;6.93;;;3.13;;
61915;SDS011;47868;51.326;6.550;2023-07-30T01:41:46;5.60;;;3.47;;
61915;SDS011;47868;51.326;6.550;2023-07-30T01:44:12;7.30;;;3.22;;
61915;SDS011;47868;51.326;6.550;2023-07-30T01:46:38;6.45;;;3.17;;
61915;SDS011;47868;51.326;6.550;2023-07-30T01:49:04;7.45;;;2.90;;
61915;SDS011;47868;51.326;6.550;2023-07-30T01:51:30;8.23;;;3.35;;
61915;SDS011;47868;51.326;6.550;2023-07-30T01:53:56;5.97;;;2.90;;
61915;SDS011;47868;51.326;6.550;2023-07-30T01:56:22;6.30;;;3.28;;
61915;SDS011;47868;51.326;6.550;2023-07-30T01:58:48;6.45;;;3.00;;
61915;SDS011;47868;51.326;6.550;2023-07-30T02:01:15;8.48;;;2.83;;
61915;SDS011;47868;51.326;6.550;2023-07-30T02:03:41;7.57;;;3.42;;
61915;SDS011;47868;51.326;6.550;2023-07-30T02:08:36;5.05;;;3.08;;
61915;SDS011;47868;51.326;6.550;2023-07-30T02:11:02;6.55;;;3.28;;
61915;SDS011;47868;51.326;6.550;2023-07-30T02:13:28;7.32;;;3.10;;
61915;SDS011;47868;51.326;6.550;2023-07-30T02:15:54;6.13;;;2.95;;
61915;SDS011;47868;51.326;6.550;2023-07-30T02:18:20;6.35;;;3.50;;
61915;SDS011;47868;51.326;6.550;2023-07-30T02:20:46;12.57;;;3.38;;
61915;SDS011;47868;51.326;6.550;2023-07-30T02:23:13;10.13;;;3.25;;
61915;SDS011;47868;51.326;6.550;2023-07-30T02:25:41;5.63;;;3.40;;
61915;SDS011;47868;51.326;6.550;2023-07-30T02:28:07;8.90;;;3.10;;
61915;SDS011;47868;51.326;6.550;2023-07-30T02:30:33;4.57;;;3.15;;
61915;SDS011;47868;51.326;6.550;2023-07-30T02:32:59;4.47;;;3.28;;
61915;SDS011;47868;51.326;6.550;2023-07-30T02:35:25;10.23;;;3.10;;
61915;SDS011;47868;51.326;6.550;2023-07-30T02:37:51;10.68;;;3.40;;
61915;SDS011;47868;51.326;6.550;2023-07-30T02:40:17;9.13;;;3.30;;
61915;SDS011;47868;51.326;6.550;2023-07-30T02:42:43;4.95;;;3.05;;
61915;SDS011;47868;51.326;6.550;2023-07-30T02:45:09;6.63;;;3.25;;
61915;SDS011;47868;51.326;6.550;2023-07-30T02:47:35;6.20;;;3.30;;
61915;SDS011;47868;51.326;6.550;2023-07-30T02:50:05;6.20;;;3.25;;
61915;SDS011;47868;51.326;6.550;2023-07-30T02:52:31;10.63;;;3.33;;
61915;SDS011;47868;51.326;6.550;2023-07-30T02:54:57;10.93;;;3.38;;
61915;SDS011;47868;51.326;6.550;2023-07-30T02:57:23;9.82;;;3.72;;
61915;SDS011;47868;51.326;6.550;2023-07-30T02:59:49;8.75;;;3.08;;
61915;SDS011;47868;51.326;6.550;2023-07-30T03:02:15;12.10;;;4.05;;
61915;SDS011;47868;51.326;6.550;2023-07-30T03:04:41;8.30;;;3.38;;
61915;SDS011;47868;51.326;6.550;2023-07-30T03:07:07;7.35;;;3.42;;
61915;SDS011;47868;51.326;6.550;2023-07-30T03:09:33;5.18;;;3.22;;
61915;SDS011;47868;51.326;6.550;2023-07-30T03:11:59;8.82;;;3.63;;
61915;SDS011;47868;51.326;6.550;2023-07-30T03:14:25;4.70;;;3.20;;
61915;SDS011;47868;51.326;6.550;2023-07-30T03:16:51;6.82;;;3.40;;
61915;SDS011;47868;51.326;6.550;2023-07-30T03:19:17;6.93;;;3.70;;
61915;SDS011;47868;51.326;6.550;2023-07-30T03:21:43;11.02;;;3.75;;
61915;SDS011;47868;51.326;6.550;2023-07-30T03:24:09;7.35;;;3.63;;
61915;SDS011;47868;51.326;6.550;2023-07-30T03:26:35;9.20;;;3.38;;
61915;SDS011;47868;51.326;6.550;2023-07-30T03:29:01;8.27;;;3.58;;
61915;SDS011;47868;51.326;6.550;2023-07-30T03:31:27;5.93;;;3.75;;
61915;SDS011;47868;51.326;6.550;2023-07-30T03:33:53;11.60;;;4.00;;
61915;SDS011;47868;51.326;6.550;2023-07-30T03:36:19;6.90;;;3.60;;
61915;SDS011;47868;51.326;6.550;2023-07-30T03:38:45;8.43;;;3.15;;
61915;SDS011;47868;51.326;6.550;2023-07-30T03:41:11;7.60;;;3.42;;
61915;SDS011;47868;51.326;6.550;2023-07-30T03:43:37;7.47;;;3.10;;
61915;SDS011;47868;51.326;6.550;2023-07-30T03:46:03;7.10;;;3.22;;
61915;SDS011;47868;51.326;6.550;2023-07-30T03:48:29;7.70;;;3.58;;
61915;SDS011;47868;51.326;6.550;2023-07-30T03:50:55;9.18;;;3.92;;
61915;SDS011;47868;51.326;6.550;2023-07-30T03:53:21;11.93;;;3.50;;
61915;SDS011;47868;51.326;6.550;2023-07-30T03:55:47;9.38;;;3.28;;
61915;SDS011;47868;51.326;6.550;2023-07-30T03:58:14;8.50;;;3.67;;
61915;SDS011;47868;51.326;6.550;2023-07-30T04:00:40;6.32;;;3.10;;
61915;SDS011;47868;51.326;6.550;2023-07-30T04:03:06;9.55;;;3.55;;
61915;SDS011;47868;51.326;6.550;2023-07-30T04:05:32;8.75;;;3.78;;
61915;SDS011;47868;51.326;6.550;2023-07-30T04:07:58;6.85;;;3.30;;
61915;SDS011;47868;51.326;6.550;2023-07-30T04:10:24;9.00;;;3.47;;
61915;SDS011;47868;51.326;6.550;2023-07-30T04:12:50;7.57;;;3.22;;
61915;SDS011;47868;51.326;6.550;2023-07-30T04:15:16;8.13;;;3.63;;
61915;SDS011;47868;51.326;6.550;2023-07-30T04:17:42;10.98;;;3.53;;
61915;SDS011;47868;51.326;6.550;2023-07-30T04:20:08;10.35;;;3.67;;
61915;SDS011;47868;51.326;6.550;2023-07-30T04:22:35;11.68;;;3.50;;
61915;SDS011;47868;51.326;6.550;2023-07-30T04:25:01;12.10;;;3.85;;
61915;SDS011;47868;51.326;6.550;2023-07-30T04:27:27;11.65;;;3.90;;
61915;SDS011;47868;51.326;6.550;2023-07-30T04:29:53;10.73;;;3.83;;
61915;SDS011;47868;51.326;6.550;2023-07-30T04:32:19;5.25;;;3.10;;
61915;SDS011;47868;51.326;6.550;2023-07-30T04:34:45;9.52;;;3.45;;
61915;SDS011;47868;51.326;6.550;2023-07-30T04:37:11;6.50;;;3.47;;
61915;SDS011;47868;51.326;6.550;2023-07-30T04:39:37;13.57;;;3.67;;
61915;SDS011;47868;51.326;6.550;2023-07-30T04:42:03;12.05;;;3.42;;
61915;SDS011;47868;51.326;6.550;2023-07-30T04:44:29;9.23;;;3.42;;
61915;SDS011;47868;51.326;6.550;2023-07-30T04:46:55;8.52;;;3.55;;
61915;SDS011;47868;51.326;6.550;2023-07-30T04:49:21;8.07;;;3.58;;
61915;SDS011;47868;51.326;6.550;2023-07-30T04:51:47;10.13;;;3.28;;
61915;SDS011;47868;51.326;6.550;2023-07-30T04:54:13;11.35;;;3.60;;
61915;SDS011;47868;51.326;6.550;2023-07-30T04:56:39;10.27;;;3.38;;
61915;SDS011;47868;51.326;6.550;2023-07-30T04:59:05;11.52;;;3.75;;
61915;SDS011;47868;51.326;6.550;2023-07-30T05:01:31;10.45;;;3.40;;
61915;SDS011;47868;51.326;6.550;2023-07-30T05:03:57;13.65;;;4.00;;
61915;SDS011;47868;51.326;6.550;2023-07-30T05:06:23;9.90;;;3.70;;
61915;SDS011;47868;51.326;6.550;2023-07-30T05:08:49;8.13;;;3.42;;
61915;SDS011;47868;51.326;6.550;2023-07-30T05:11:15;9.20;;;3.42;;
61915;SDS011;47868;51.326;6.550;2023-07-30T05:13:41;8.77;;;3.53;;
61915;SDS011;47868;51.326;6.550;2023-07-30T05:16:07;6.45;;;3.28;;
61915;SDS011;47868;51.326;6.550;2023-07-30T05:18:33;8.88;;;3.03;;
61915;SDS011;47868;51.326;6.550;2023-07-30T05:20:59;8.13;;;3.38;;
61915;SDS011;47868;51.326;6.550;2023-07-30T05:23:25;9.10;;;3.17;;
61915;SDS011;47868;51.326;6.550;2023-07-30T05:25:51;10.48;;;3.20;;
61915;SDS011;47868;51.326;6.550;2023-07-30T05:28:17;11.23;;;3.58;;
61915;SDS011;47868;51.326;6.550;2023-07-30T05:30:43;7.10;;;3.10;;
61915;SDS011;47868;51.326;6.550;2023-07-30T05:33:09;14.48;;;3.78;;
61915;SDS011;47868;51.326;6.550;2023-07-30T05:35:35;8.63;;;3.45;;
61915;SDS011;47868;51.326;6.550;2023-07-30T05:38:01;8.07;;;2.88;;
61915;SDS011;47868;51.326;6.550;2023-07-30T05:40:27;5.32;;;2.50;;
61915;SDS011;47868;51.326;6.550;2023-07-30T05:42:53;12.38;;;3.15;;
61915;SDS011;47868;51.326;6.550;2023-07-30T05:45:19;8.43;;;2.55;;
61915;SDS011;47868;51.326;6.550;2023-07-30T05:47:45;6.97;;;2.78;;
61915;SDS011;47868;51.326;6.550;2023-07-30T05:50:11;7.63;;;2.50;;
61915;SDS011;47868;51.326;6.550;2023-07-30T05:52:37;4.47;;;2.03;;
61915;SDS011;47868;51.326;6.550;2023-07-30T05:55:03;6.40;;;2.38;;
61915;SDS011;47868;51.326;6.550;2023-07-30T05:57:29;5.80;;;2.10;;
61915;SDS011;47868;51.326;6.550;2023-07-30T05:59:55;6.10;;;2.90;;
61915;SDS011;47868;51.326;6.550;2023-07-30T06:02:21;6.60;;;2.20;;
61915;SDS011;47868;51.326;6.550;2023-07-30T06:04:47;6.38;;;2.13;;
61915;SDS011;47868;51.326;6.550;2023-07-30T06:07:13;5.90;;;2.40;;
61915;SDS011;47868;51.326;6.550;2023-07-30T06:09:39;4.47;;;2.20;;
61915;SDS011;47868;51.326;6.550;2023-07-30T06:12:05;7.53;;;2.40;;
61915;SDS011;47868;51.326;6.550;2023-07-30T06:14:31;8.32;;;2.63;;
61915;SDS011;47868;51.326;6.550;2023-07-30T06:16:57;5.95;;;2.08;;
61915;SDS011;47868;51.326;6.550;2023-07-30T06:19:23;8.38;;;2.40;;
61915;SDS011;47868;51.326;6.550;2023-07-30T06:21:49;5.78;;;2.35;;
61915;SDS011;47868;51.326;6.550;2023-07-30T06:24:16;6.05;;;1.90;;
61915;SDS011;47868;51.326;6.550;2023-07-30T06:26:42;5.72;;;2.38;;
61915;SDS011;47868;51.326;6.550;2023-07-30T06:29:08;6.68;;;2.10;;
61915;SDS011;47868;51.326;6.550;2023-07-30T06:31:34;7.45;;;2.15;;
61915;SDS011;47868;51.326;6.550;2023-07-30T06:34:00;6.38;;;2.13;;
61915;SDS011;47868;51.326;6.550;2023-07-30T06:36:26;12.25;;;2.55;;
61915;SDS011;47868;51.326;6.550;2023-07-30T06:38:52;10.27;;;2.15;;
61915;SDS011;47868;51.326;6.550;2023-07-30T06:41:18;7.35;;;2.67;;
61915;SDS011;47868;51.326;6.550;2023-07-30T06:43:44;8.40;;;2.13;;
61915;SDS011;47868;51.326;6.550;2023-07-30T06:46:10;10.57;;;2.47;;
61915;SDS011;47868;51.326;6.550;2023-07-30T06:48:36;7.70;;;2.20;;
61915;SDS011;47868;51.326;6.550;2023-07-30T06:51:05;9.38;;;2.78;;
61915;SDS011;47868;51.326;6.550;2023-07-30T06:53:31;8.57;;;2.70;;
61915;SDS011;47868;51.326;6.550;2023-07-30T06:55:57;10.43;;;2.75;;
61915;SDS011;47868;51.326;6.550;2023-07-30T06:58:23;13.02;;;3.17;;
61915;SDS011;47868;51.326;6.550;2023-07-30T07:00:49;7.13;;;2.95;;
61915;SDS011;47868;51.326;6.550;2023-07-30T07:03:15;8.50;;;2.85;;
61915;SDS011;47868;51.326;6.550;2023-07-30T07:05:41;10.63;;;2.67;;
61915;SDS011;47868;51.326;6.550;2023-07-30T07:08:07;13.18;;;2.92;;
61915;SDS011;47868;51.326;6.550;2023-07-30T07:10:33;8.45;;;2.75;;
61915;SDS011;47868;51.326;6.550;2023-07-30T07:12:59;11.30;;;2.45;;
61915;SDS011;47868;51.326;6.550;2023-07-30T07:15:25;8.73;;;2.88;;
61915;SDS011;47868;51.326;6.550;2023-07-30T07:17:51;11.35;;;2.53;;
61915;SDS011;47868;51.326;6.550;2023-07-30T07:20:17;6.85;;;2.53;;
61915;SDS011;47868;51.326;6.550;2023-07-30T07:22:43;9.38;;;3.05;;
61915;SDS011;47868;51.326;6.550;2023-07-30T07:25:09;13.68;;;3.40;;
61915;SDS011;47868;51.326;6.550;2023-07-30T07:27:35;12.18;;;3.08;;
61915;SDS011;47868;51.326;6.550;2023-07-30T07:30:01;8.40;;;2.72;;
61915;SDS011;47868;51.326;6.550;2023-07-30T07:32:27;12.57;;;3.42;;
61915;SDS011;47868;51.326;6.550;2023-07-30T07:34:53;8.23;;;3.35;;
61915;SDS011;47868;51.326;6.550;2023-07-30T07:37:19;10.68;;;3.03;;
61915;SDS011;47868;51.326;6.550;2023-07-30T07:39:45;12.85;;;3.25;;
61915;SDS011;47868;51.326;6.550;2023-07-30T07:42:11;9.55;;;3.50;;
61915;SDS011;47868;51.326;6.550;2023-07-30T07:44:38;9.57;;;3.30;;
61915;SDS011;47868;51.326;6.550;2023-07-30T07:47:04;11.38;;;3.40;;
61915;SDS011;47868;51.326;6.550;2023-07-30T07:49:30;11.40;;;3.47;;
61915;SDS011;47868;51.326;6.550;2023-07-30T07:51:56;9.63;;;3.22;;
61915;SDS011;47868;51.326;6.550;2023-07-30T07:54:22;13.63;;;3.92;;
61915;SDS011;47868;51.326;6.550;2023-07-30T07:56:48;10.65;;;3.40;;
61915;SDS011;47868;51.326;6.550;2023-07-30T07:59:14;12.93;;;3.92;;
61915;SDS011;47868;51.326;6.550;2023-07-30T08:01:40;12.75;;;3.90;;
61915;SDS011;47868;51.326;6.550;2023-07-30T08:04:06;11.30;;;3.90;;
61915;SDS011;47868;51.326;6.550;2023-07-30T08:06:32;11.45;;;3.13;;
61915;SDS011;47868;51.326;6.550;2023-07-30T08:08:58;11.98;;;3.30;;
61915;SDS011;47868;51.326;6.550;2023-07-30T08:11:24;9.90;;;3.63;;
61915;SDS011;47868;51.326;6.550;2023-07-30T08:13:50;10.90;;;3.33;;
61915;SDS011;47868;51.326;6.550;2023-07-30T08:16:16;8.63;;;3.22;;
61915;SDS011;47868;51.326;6.550;2023-07-30T08:18:42;15.05;;;3.70;;
61915;SDS011;47868;51.326;6.550;2023-07-30T08:21:08;16.50;;;4.00;;
61915;SDS011;47868;51.326;6.550;2023-07-30T08:23:34;12.13;;;3.70;;
61915;SDS011;47868;51.326;6.550;2023-07-30T08:26:00;11.52;;;3.88;;
61915;SDS011;47868;51.326;6.550;2023-07-30T08:28:26;11.98;;;3.72;;
61915;SDS011;47868;51.326;6.550;2023-07-30T08:30:52;9.73;;;3.50;;
61915;SDS011;47868;51.326;6.550;2023-07-30T08:33:18;12.23;;;3.40;;
61915;SDS011;47868;51.326;6.550;2023-07-30T08:35:44;14.35;;;3.83;;
61915;SDS011;47868;51.326;6.550;2023-07-30T08:38:10;13.20;;;3.45;;
61915;SDS011;47868;51.326;6.550;2023-07-30T08:40:36;13.65;;;3.72;;
61915;SDS011;47868;51.326;6.550;2023-07-30T08:43:02;11.90;;;3.17;;
61915;SDS011;47868;51.326;6.550;2023-07-30T08:45:29;11.82;;;4.13;;
61915;SDS011;47868;51.326;6.550;2023-07-30T08:47:55;14.82;;;3.83;;
61915;SDS011;47868;51.326;6.550;2023-07-30T08:50:21;13.23;;;3.40;;
61915;SDS011;47868;51.326;6.550;2023-07-30T08:52:48;13.93;;;3.70;;
61915;SDS011;47868;51.326;6.550;2023-07-30T08:55:14;14.63;;;4.05;;
61915;SDS011;47868;51.326;6.550;2023-07-30T08:57:41;12.27;;;3.33;;
61915;SDS011;47868;51.326;6.550;2023-07-30T09:00:09;12.80;;;3.50;;
61915;SDS011;47868;51.326;6.550;2023-07-30T09:02:49;11.68;;;3.40;;
61915;SDS011;47868;51.326;6.550;2023-07-30T09:05:16;9.20;;;3.13;;
61915;SDS011;47868;51.326;6.550;2023-07-30T09:07:42;10.55;;;3.20;;
61915;SDS011;47868;51.326;6.550;2023-07-30T09:10:09;8.52;;;3.40;;
61915;SDS011;47868;51.326;6.550;2023-07-30T09:12:35;11.50;;;3.25;;
61915;SDS011;47868;51.326;6.550;2023-07-30T09:15:02;15.45;;;3.03;;
61915;SDS011;47868;51.326;6.550;2023-07-30T09:17:29;10.73;;;3.08;;
61915;SDS011;47868;51.326;6.550;2023-07-30T09:19:55;11.23;;;2.90;;
61915;SDS011;47868;51.326;6.550;2023-07-30T09:24:51;16.63;;;3.10;;
61915;SDS011;47868;51.326;6.550;2023-07-30T09:27:19;8.30;;;3.15;;
61915;SDS011;47868;51.326;6.550;2023-07-30T09:29:51;9.77;;;2.67;;
61915;SDS011;47868;51.326;6.550;2023-07-30T09:32:18;8.00;;;2.80;;
61915;SDS011;47868;51.326;6.550;2023-07-30T09:34:44;10.85;;;2.92;;
61915;SDS011;47868;51.326;6.550;2023-07-30T09:37:10;11.10;;;2.88;;
61915;SDS011;47868;51.326;6.550;2023-07-30T09:39:37;13.30;;;3.25;;
61915;SDS011;47868;51.326;6.550;2023-07-30T09:42:03;10.57;;;3.42;;
61915;SDS011;47868;51.326;6.550;2023-07-30T09:44:29;10.60;;;3.00;;
61915;SDS011;47868;51.326;6.550;2023-07-30T09:46:57;10.27;;;3.40;;
61915;SDS011;47868;51.326;6.550;2023-07-30T09:49:23;9.63;;;3.45;;
61915;SDS011;47868;51.326;6.550;2023-07-30T09:51:49;10.45;;;2.60;;
61915;SDS011;47868;51.326;6.550;2023-07-30T09:54:16;11.15;;;3.00;;
61915;SDS011;47868;51.326;6.550;2023-07-30T09:56:42;9.88;;;2.38;;
61915;SDS011;47868;51.326;6.550;2023-07-30T09:59:08;10.23;;;2.67;;
61915;SDS011;47868;51.326;6.550;2023-07-30T10:01:38;9.48;;;2.95;;
61915;SDS011;47868;51.326;6.550;2023-07-30T10:04:07;6.80;;;2.28;;
61915;SDS011;47868;51.326;6.550;2023-07-30T10:06:35;9.43;;;2.70;;
61915;SDS011;47868;51.326;6.550;2023-07-30T10:09:03;8.30;;;2.30;;
61915;SDS011;47868;51.326;6.550;2023-07-30T10:11:29;7.85;;;2.63;;
61915;SDS011;47868;51.326;6.550;2023-07-30T10:13:56;10.93;;;2.90;;
61915;SDS011;47868;51.326;6.550;2023-07-30T10:16:26;8.60;;;2.78;;
61915;SDS011;47868;51.326;6.550;2023-07-30T10:18:55;10.13;;;2.55;;
61915;SDS011;47868;51.326;6.550;2023-07-30T10:21:23;11.52;;;2.63;;
61915;SDS011;47868;51.326;6.550;2023-07-30T10:24:04;7.40;;;2.30;;
61915;SDS011;47868;51.326;6.550;2023-07-30T10:26:32;8.25;;;2.35;;
61915;SDS011;47868;51.326;6.550;2023-07-30T10:29:19;5.78;;;2.17;;
61915;SDS011;47868;51.326;6.550;2023-07-30T10:31:55;10.40;;;2.67;;
61915;SDS011;47868;51.326;6.550;2023-07-30T10:34:21;13.13;;;2.58;;
61915;SDS011;47868;51.326;6.550;2023-07-30T10:36:48;9.50;;;2.55;;
61915;SDS011;47868;51.326;6.550;2023-07-30T10:41:41;6.18;;;2.40;;
61915;SDS011;47868;51.326;6.550;2023-07-30T10:44:08;7.25;;;2.47;;
61915;SDS011;47868;51.326;6.550;2023-07-30T10:46:43;9.20;;;2.25;;
61915;SDS011;47868;51.326;6.550;2023-07-30T10:49:09;8.85;;;2.47;;
61915;SDS011;47868;51.326;6.550;2023-07-30T10:51:37;11.43;;;2.67;;
61915;SDS011;47868;51.326;6.550;2023-07-30T10:54:05;6.55;;;2.08;;
61915;SDS011;47868;51.326;6.550;2023-07-30T10:56:31;8.63;;;2.53;;
61915;SDS011;47868;51.326;6.550;2023-07-30T10:58:57;8.80;;;2.78;;
61915;SDS011;47868;51.326;6.550;2023-07-30T11:01:26;10.98;;;2.55;;
61915;SDS011;47868;51.326;6.550;2023-07-30T11:03:52;6.57;;;2.30;;
61915;SDS011;47868;51.326;6.550;2023-07-30T11:06:25;10.55;;;2.58;;
61915;SDS011;47868;51.326;6.550;2023-07-30T11:08:51;11.25;;;2.30;;
61915;SDS011;47868;51.326;6.550;2023-07-30T11:11:17;4.97;;;2.17;;
61915;SDS011;47868;51.326;6.550;2023-07-30T11:13:44;10.50;;;2.60;;
61915;SDS011;47868;51.326;6.550;2023-07-30T11:16:14;6.95;;;2.13;;
61915;SDS011;47868;51.326;6.550;2023-07-30T11:18:40;6.80;;;2.40;;
61915;SDS011;47868;51.326;6.550;2023-07-30T11:21:07;7.47;;;2.33;;
61915;SDS011;47868;51.326;6.550;2023-07-30T11:23:36;10.73;;;2.50;;
61915;SDS011;47868;51.326;6.550;2023-07-30T11:26:03;8.13;;;2.55;;
61915;SDS011;47868;51.326;6.550;2023-07-30T11:28:30;7.93;;;2.35;;
61915;SDS011;47868;51.326;6.550;2023-07-30T11:30:57;8.73;;;2.65;;
61915;SDS011;47868;51.326;6.550;2023-07-30T11:33:24;7.47;;;2.75;;
61915;SDS011;47868;51.326;6.550;2023-07-30T11:35:50;9.88;;;2.60;;
61915;SDS011;47868;51.326;6.550;2023-07-30T11:38:16;6.80;;;2.60;;
61915;SDS011;47868;51.326;6.550;2023-07-30T11:40:44;6.68;;;2.50;;
61915;SDS011;47868;51.326;6.550;2023-07-30T11:43:11;5.25;;;2.28;;
61915;SDS011;47868;51.326;6.550;2023-07-30T11:45:37;5.95;;;1.70;;
61915;SDS011;47868;51.326;6.550;2023-07-30T11:48:09;6.30;;;1.92;;
61915;SDS011;47868;51.326;6.550;2023-07-30T11:50:51;4.82;;;1.90;;
61915;SDS011;47868;51.326;6.550;2023-07-30T11:53:18;7.63;;;2.08;;
61915;SDS011;47868;51.326;6.550;2023-07-30T11:55:44;7.65;;;2.05;;
61915;SDS011;47868;51.326;6.550;2023-07-30T11:58:11;4.63;;;1.83;;
61915;SDS011;47868;51.326;6.550;2023-07-30T12:00:38;6.35;;;1.80;;
61915;SDS011;47868;51.326;6.550;2023-07-30T12:03:05;5.32;;;1.88;;
61915;SDS011;47868;51.326;6.550;2023-07-30T12:05:36;6.78;;;1.67;;
61915;SDS011;47868;51.326;6.550;2023-07-30T12:08:02;4.90;;;1.65;;
61915;SDS011;47868;51.326;6.550;2023-07-30T12:10:47;8.13;;;1.95;;
61915;SDS011;47868;51.326;6.550;2023-07-30T12:13:16;4.72;;;1.58;;
61915;SDS011;47868;51.326;6.550;2023-07-30T12:15:55;4.93;;;1.80;;
61915;SDS011;47868;51.326;6.550;2023-07-30T12:18:22;3.38;;;1.40;;
61915;SDS011;47868;51.326;6.550;2023-07-30T12:20:49;5.72;;;1.50;;
61915;SDS011;47868;51.326;6.550;2023-07-30T12:23:16;5.20;;;1.73;;
61915;SDS011;47868;51.326;6.550;2023-07-30T12:25:42;4.18;;;1.65;;
61915;SDS011;47868;51.326;6.550;2023-07-30T12:28:08;5.97;;;1.17;;
61915;SDS011;47868;51.326;6.550;2023-07-30T12:30:34;8.35;;;1.92;;
61915;SDS011;47868;51.326;6.550;2023-07-30T12:33:01;5.15;;;1.52;;
61915;SDS011;47868;51.326;6.550;2023-07-30T12:35:28;4.80;;;1.67;;
61915;SDS011;47868;51.326;6.550;2023-07-30T12:37:54;2.83;;;1.25;;
61915;SDS011;47868;51.326;6.550;2023-07-30T12:40:20;3.78;;;1.80;;
61915;SDS011;47868;51.326;6.550;2023-07-30T12:42:46;3.53;;;1.90;;
61915;SDS011;47868;51.326;6.550;2023-07-30T12:45:12;4.53;;;1.75;;
61915;SDS011;47868;51.326;6.550;2023-07-30T12:47:39;4.97;;;1.98;;
61915;SDS011;47868;51.326;6.550;2023-07-30T12:50:05;4.00;;;1.75;;
61915;SDS011;47868;51.326;6.550;2023-07-30T12:52:32;7.07;;;1.88;;
61915;SDS011;47868;51.326;6.550;2023-07-30T12:54:58;2.67;;;1.67;;
61915;SDS011;47868;51.326;6.550;2023-07-30T12:57:24;7.18;;;1.58;;
61915;SDS011;47868;51.326;6.550;2023-07-30T12:59:50;4.75;;;1.65;;
61915;SDS011;47868;51.326;6.550;2023-07-30T13:02:16;3.35;;;1.58;;
61915;SDS011;47868;51.326;6.550;2023-07-30T13:04:42;4.22;;;1.60;;
61915;SDS011;47868;51.326;6.550;2023-07-30T13:07:08;3.63;;;1.70;;
61915;SDS011;47868;51.326;6.550;2023-07-30T13:09:34;4.38;;;1.35;;
61915;SDS011;47868;51.326;6.550;2023-07-30T13:12:00;5.75;;;1.80;;
61915;SDS011;47868;51.326;6.550;2023-07-30T13:14:26;5.00;;;1.92;;
61915;SDS011;47868;51.326;6.550;2023-07-30T13:16:52;4.47;;;1.48;;
61915;SDS011;47868;51.326;6.550;2023-07-30T13:19:18;3.33;;;1.48;;
61915;SDS011;47868;51.326;6.550;2023-07-30T13:21:44;5.13;;;1.83;;
61915;SDS011;47868;51.326;6.550;2023-07-30T13:24:10;3.90;;;1.50;;
61915;SDS011;47868;51.326;6.550;2023-07-30T13:26:36;7.22;;;1.50;;
61915;SDS011;47868;51.326;6.550;2023-07-30T13:29:03;4.97;;;1.90;;
61915;SDS011;47868;51.326;6.550;2023-07-30T13:31:29;6.00;;;1.85;;
61915;SDS011;47868;51.326;6.550;2023-07-30T13:33:56;4.93;;;1.67;;
61915;SDS011;47868;51.326;6.550;2023-07-30T13:36:22;2.90;;;1.52;;
61915;SDS011;47868;51.326;6.550;2023-07-30T13:38:48;4.93;;;1.77;;
61915;SDS011;47868;51.326;6.550;2023-07-30T13:41:14;6.78;;;1.90;;
61915;SDS011;47868;51.326;6.550;2023-07-30T13:43:40;6.60;;;2.17;;
61915;SDS011;47868;51.326;6.550;2023-07-30T13:46:06;5.05;;;2.00;;
61915;SDS011;47868;51.326;6.550;2023-07-30T13:48:32;5.80;;;2.55;;
61915;SDS011;47868;51.326;6.550;2023-07-30T13:50:58;5.65;;;2.13;;
61915;SDS011;47868;51.326;6.550;2023-07-30T13:53:24;6.60;;;2.90;;
61915;SDS011;47868;51.326;6.550;2023-07-30T13:55:50;5.28;;;2.25;;
61915;SDS011;47868;51.326;6.550;2023-07-30T13:58:16;5.38;;;2.10;;
61915;SDS011;47868;51.326;6.550;2023-07-30T14:00:42;6.70;;;2.78;;
61915;SDS011;47868;51.326;6.550;2023-07-30T14:03:08;6.18;;;2.58;;
61915;SDS011;47868;51.326;6.550;2023-07-30T14:05:36;5.50;;;2.60;;
61915;SDS011;47868;51.326;6.550;2023-07-30T14:08:02;4.53;;;2.00;;
61915;SDS011;47868;51.326;6.550;2023-07-30T14:10:28;5.05;;;2.22;;
61915;SDS011;47868;51.326;6.550;2023-07-30T14:12:54;6.38;;;1.92;;
61915;SDS011;47868;51.326;6.550;2023-07-30T14:15:20;6.15;;;2.10;;
61915;SDS011;47868;51.326;6.550;2023-07-30T14:17:46;4.45;;;1.90;;
61915;SDS011;47868;51.326;6.550;2023-07-30T14:20:12;8.88;;;2.15;;
61915;SDS011;47868;51.326;6.550;2023-07-30T14:22:38;4.13;;;1.80;;
61915;SDS011;47868;51.326;6.550;2023-07-30T14:25:04;5.70;;;2.17;;
61915;SDS011;47868;51.326;6.550;2023-07-30T14:27:30;5.43;;;2.13;;
61915;SDS011;47868;51.326;6.550;2023-07-30T14:29:56;3.95;;;2.10;;
61915;SDS011;47868;51.326;6.550;2023-07-30T14:32:23;5.03;;;2.25;;
61915;SDS011;47868;51.326;6.550;2023-07-30T14:34:49;9.65;;;2.38;;
61915;SDS011;47868;51.326;6.550;2023-07-30T14:37:15;6.28;;;2.13;;
61915;SDS011;47868;51.326;6.550;2023-07-30T14:39:41;7.65;;;2.10;;
61915;SDS011;47868;51.326;6.550;2023-07-30T14:42:07;3.38;;;1.48;;
61915;SDS011;47868;51.326;6.550;2023-07-30T14:44:34;4.00;;;2.10;;
61915;SDS011;47868;51.326;6.550;2023-07-30T14:47:00;12.60;;;2.50;;